Saint Henry, Indiana
Current Conditions -  °F | °C
As of 1:35 PM on Friday 28 Nov 2014 (Local Time) from KHNB Reporting Station
Clear Clear  
Wind Chill: 32°   Ceiling: Unl
Heat Index: 39°   Visibility: 10mi
Dew Point: 27°   Wind: 13mph
Humidity: 61%   Direction: 170°S
Pressure: 30.2"   Gusts: 18mph
Location:  38.2418°N, 86.8519°W
Report Text: KHNB 281935Z AUTO 17011G16KT 10SM CLR 04/M03 A3020 RMK AO1
Loading
Personal Weather Stations






























Interactive Weather Map New forecast layout! Learn more

10-Day Weather Forecast

Advertisements
Track Severe Weather on mobile